sensor_id;sensor_type;location;lat;lon;timestamp;temperature;humidity
41447;DHT22;27185;52.040;4.490;2022-08-19T00:00:16;19.90;99.90
41447;DHT22;27185;52.040;4.490;2022-08-19T00:03:02;19.90;99.90
41447;DHT22;27185;52.040;4.490;2022-08-19T00:05:48;19.90;99.90
41447;DHT22;27185;52.040;4.490;2022-08-19T00:08:33;19.90;99.90
41447;DHT22;27185;52.040;4.490;2022-08-19T00:11:19;19.80;99.90
41447;DHT22;27185;52.040;4.490;2022-08-19T00:14:07;19.80;99.90
41447;DHT22;27185;52.040;4.490;2022-08-19T00:16:54;19.80;99.90
41447;DHT22;27185;52.040;4.490;2022-08-19T00:19:40;19.80;99.90
41447;DHT22;27185;52.040;4.490;2022-08-19T00:22:26;19.80;99.90
41447;DHT22;27185;52.040;4.490;2022-08-19T00:25:14;19.80;99.90
41447;DHT22;27185;52.040;4.490;2022-08-19T00:28:00;19.70;99.90
41447;DHT22;27185;52.040;4.490;2022-08-19T00:30:46;19.70;99.90
41447;DHT22;27185;52.040;4.490;2022-08-19T00:33:31;19.70;99.90
41447;DHT22;27185;52.040;4.490;2022-08-19T00:36:17;19.70;99.90
41447;DHT22;27185;52.040;4.490;2022-08-19T00:39:03;19.60;99.90
41447;DHT22;27185;52.040;4.490;2022-08-19T00:41:50;19.60;99.90
41447;DHT22;27185;52.040;4.490;2022-08-19T00:44:36;19.60;99.90
41447;DHT22;27185;52.040;4.490;2022-08-19T00:47:22;19.60;99.90
41447;DHT22;27185;52.040;4.490;2022-08-19T00:50:09;19.60;99.90
41447;DHT22;27185;52.040;4.490;2022-08-19T00:52:55;19.60;99.90
41447;DHT22;27185;52.040;4.490;2022-08-19T00:55:44;19.60;99.90
41447;DHT22;27185;52.040;4.490;2022-08-19T00:58:32;19.60;99.90
41447;DHT22;27185;52.040;4.490;2022-08-19T01:01:18;19.50;99.90
41447;DHT22;27185;52.040;4.490;2022-08-19T01:04:04;19.50;99.90
41447;DHT22;27185;52.040;4.490;2022-08-19T01:06:50;19.50;99.90
41447;DHT22;27185;52.040;4.490;2022-08-19T01:09:36;19.50;99.90
41447;DHT22;27185;52.040;4.490;2022-08-19T01:12:21;19.50;99.90
41447;DHT22;27185;52.040;4.490;2022-08-19T01:15:10;19.50;99.90
41447;DHT22;27185;52.040;4.490;2022-08-19T01:17:57;19.40;99.90
41447;DHT22;27185;52.040;4.490;2022-08-19T01:20:45;19.40;99.90
41447;DHT22;27185;52.040;4.490;2022-08-19T01:23:31;19.50;99.90
41447;DHT22;27185;52.040;4.490;2022-08-19T01:26:29;19.40;99.90
41447;DHT22;27185;52.040;4.490;2022-08-19T01:29:14;19.50;99.90
41447;DHT22;27185;52.040;4.490;2022-08-19T01:32:01;19.40;99.90
41447;DHT22;27185;52.040;4.490;2022-08-19T01:34:46;19.50;99.90
41447;DHT22;27185;52.040;4.490;2022-08-19T01:37:46;19.40;99.90
41447;DHT22;27185;52.040;4.490;2022-08-19T01:40:34;19.50;99.90
41447;DHT22;27185;52.040;4.490;2022-08-19T01:43:20;19.40;99.90
41447;DHT22;27185;52.040;4.490;2022-08-19T01:46:06;19.40;99.90
41447;DHT22;27185;52.040;4.490;2022-08-19T01:48:51;19.40;99.90
41447;DHT22;27185;52.040;4.490;2022-08-19T01:51:37;19.40;99.90
41447;DHT22;27185;52.040;4.490;2022-08-19T01:54:23;19.40;99.90
41447;DHT22;27185;52.040;4.490;2022-08-19T01:57:12;19.40;99.90
41447;DHT22;27185;52.040;4.490;2022-08-19T01:59:59;19.40;99.90
41447;DHT22;27185;52.040;4.490;2022-08-19T02:02:46;19.40;99.90
41447;DHT22;27185;52.040;4.490;2022-08-19T02:05:33;19.40;99.90
41447;DHT22;27185;52.040;4.490;2022-08-19T02:08:18;19.40;99.90
41447;DHT22;27185;52.040;4.490;2022-08-19T02:11:05;19.40;99.90
41447;DHT22;27185;52.040;4.490;2022-08-19T02:13:50;19.40;99.90
41447;DHT22;27185;52.040;4.490;2022-08-19T02:16:36;19.40;99.90
41447;DHT22;27185;52.040;4.490;2022-08-19T02:19:22;19.50;99.90
41447;DHT22;27185;52.040;4.490;2022-08-19T02:22:08;19.50;99.90
41447;DHT22;27185;52.040;4.490;2022-08-19T02:24:54;19.50;99.90
41447;DHT22;27185;52.040;4.490;2022-08-19T02:27:40;19.50;99.90
41447;DHT22;27185;52.040;4.490;2022-08-19T02:30:26;19.60;99.90
41447;DHT22;27185;52.040;4.490;2022-08-19T02:33:11;19.60;99.90
41447;DHT22;27185;52.040;4.490;2022-08-19T02:35:57;19.60;99.90
41447;DHT22;27185;52.040;4.490;2022-08-19T02:38:44;19.60;99.90
41447;DHT22;27185;52.040;4.490;2022-08-19T02:41:32;19.60;99.90
41447;DHT22;27185;52.040;4.490;2022-08-19T02:44:18;19.60;99.90
41447;DHT22;27185;52.040;4.490;2022-08-19T02:47:03;19.60;99.90
41447;DHT22;27185;52.040;4.490;2022-08-19T02:49:49;19.60;99.90
41447;DHT22;27185;52.040;4.490;2022-08-19T02:52:35;19.60;99.90
41447;DHT22;27185;52.040;4.490;2022-08-19T02:55:21;19.60;99.90
41447;DHT22;27185;52.040;4.490;2022-08-19T02:58:06;19.60;99.90
41447;DHT22;27185;52.040;4.490;2022-08-19T03:00:54;19.60;99.90
41447;DHT22;27185;52.040;4.490;2022-08-19T03:03:40;19.60;99.90
41447;DHT22;27185;52.040;4.490;2022-08-19T03:06:26;19.60;99.90
41447;DHT22;27185;52.040;4.490;2022-08-19T03:09:12;19.60;99.90
41447;DHT22;27185;52.040;4.490;2022-08-19T03:11:58;19.60;99.90
41447;DHT22;27185;52.040;4.490;2022-08-19T03:14:44;19.60;99.90
41447;DHT22;27185;52.040;4.490;2022-08-19T03:17:31;19.50;99.90
41447;DHT22;27185;52.040;4.490;2022-08-19T03:20:16;19.50;99.90
41447;DHT22;27185;52.040;4.490;2022-08-19T03:23:02;19.50;99.90
41447;DHT22;27185;52.040;4.490;2022-08-19T03:25:49;19.50;99.90
41447;DHT22;27185;52.040;4.490;2022-08-19T03:28:35;19.50;99.90
41447;DHT22;27185;52.040;4.490;2022-08-19T03:31:23;19.50;99.90
41447;DHT22;27185;52.040;4.490;2022-08-19T03:34:16;19.50;99.90
41447;DHT22;27185;52.040;4.490;2022-08-19T03:37:08;19.40;99.90
41447;DHT22;27185;52.040;4.490;2022-08-19T03:39:55;19.40;99.90
41447;DHT22;27185;52.040;4.490;2022-08-19T03:42:40;19.40;99.90
41447;DHT22;27185;52.040;4.490;2022-08-19T03:45:27;19.30;99.90
41447;DHT22;27185;52.040;4.490;2022-08-19T03:48:13;19.30;99.90
41447;DHT22;27185;52.040;4.490;2022-08-19T03:50:59;19.30;99.90
41447;DHT22;27185;52.040;4.490;2022-08-19T03:53:45;19.20;99.90
41447;DHT22;27185;52.040;4.490;2022-08-19T03:56:34;19.20;99.90
41447;DHT22;27185;52.040;4.490;2022-08-19T03:59:32;19.20;99.90
41447;DHT22;27185;52.040;4.490;2022-08-19T04:02:17;19.20;99.90
41447;DHT22;27185;52.040;4.490;2022-08-19T04:05:03;19.20;99.90
41447;DHT22;27185;52.040;4.490;2022-08-19T04:07:50;19.20;99.90
41447;DHT22;27185;52.040;4.490;2022-08-19T04:10:37;19.20;99.90
41447;DHT22;27185;52.040;4.490;2022-08-19T04:13:23;19.20;99.90
41447;DHT22;27185;52.040;4.490;2022-08-19T04:16:09;19.20;99.90
41447;DHT22;27185;52.040;4.490;2022-08-19T04:18:56;19.20;99.90
41447;DHT22;27185;52.040;4.490;2022-08-19T04:21:48;19.20;99.90
41447;DHT22;27185;52.040;4.490;2022-08-19T04:24:34;19.20;99.90
41447;DHT22;27185;52.040;4.490;2022-08-19T04:27:20;19.20;99.90
41447;DHT22;27185;52.040;4.490;2022-08-19T04:30:06;19.20;99.90
41447;DHT22;27185;52.040;4.490;2022-08-19T04:32:51;19.30;99.90
41447;DHT22;27185;52.040;4.490;2022-08-19T04:35:44;19.30;99.90
41447;DHT22;27185;52.040;4.490;2022-08-19T04:38:30;19.50;99.90
41447;DHT22;27185;52.040;4.490;2022-08-19T04:41:16;19.60;99.90
41447;DHT22;27185;52.040;4.490;2022-08-19T04:44:20;19.70;99.90
41447;DHT22;27185;52.040;4.490;2022-08-19T04:47:06;19.70;99.90
41447;DHT22;27185;52.040;4.490;2022-08-19T04:49:51;19.80;99.90
41447;DHT22;27185;52.040;4.490;2022-08-19T04:52:38;19.90;99.90
41447;DHT22;27185;52.040;4.490;2022-08-19T04:55:28;20.00;99.90
41447;DHT22;27185;52.040;4.490;2022-08-19T04:58:13;20.10;99.90
41447;DHT22;27185;52.040;4.490;2022-08-19T05:00:59;20.20;99.90
41447;DHT22;27185;52.040;4.490;2022-08-19T05:03:45;20.20;99.90
41447;DHT22;27185;52.040;4.490;2022-08-19T05:06:32;20.30;99.90
41447;DHT22;27185;52.040;4.490;2022-08-19T05:09:18;20.40;99.90
41447;DHT22;27185;52.040;4.490;2022-08-19T05:12:05;20.40;99.90
41447;DHT22;27185;52.040;4.490;2022-08-19T05:14:51;20.60;99.90
41447;DHT22;27185;52.040;4.490;2022-08-19T05:17:37;20.60;99.90
41447;DHT22;27185;52.040;4.490;2022-08-19T05:20:22;20.70;99.90
41447;DHT22;27185;52.040;4.490;2022-08-19T05:23:27;20.80;99.90
41447;DHT22;27185;52.040;4.490;2022-08-19T05:26:12;20.80;99.90
41447;DHT22;27185;52.040;4.490;2022-08-19T05:28:58;20.90;99.90
41447;DHT22;27185;52.040;4.490;2022-08-19T05:31:44;21.00;99.90
41447;DHT22;27185;52.040;4.490;2022-08-19T05:34:29;21.00;99.90
41447;DHT22;27185;52.040;4.490;2022-08-19T05:37:16;21.10;99.90
41447;DHT22;27185;52.040;4.490;2022-08-19T05:40:03;21.10;99.90
41447;DHT22;27185;52.040;4.490;2022-08-19T05:42:49;21.20;99.90
41447;DHT22;27185;52.040;4.490;2022-08-19T05:45:39;21.20;99.90
41447;DHT22;27185;52.040;4.490;2022-08-19T05:48:25;21.20;99.90
41447;DHT22;27185;52.040;4.490;2022-08-19T05:51:12;21.30;99.90
41447;DHT22;27185;52.040;4.490;2022-08-19T05:53:58;21.30;99.90
41447;DHT22;27185;52.040;4.490;2022-08-19T05:56:44;21.40;99.90
41447;DHT22;27185;52.040;4.490;2022-08-19T05:59:32;21.40;99.90
41447;DHT22;27185;52.040;4.490;2022-08-19T06:02:19;21.40;99.90
41447;DHT22;27185;52.040;4.490;2022-08-19T06:05:06;21.40;99.90
41447;DHT22;27185;52.040;4.490;2022-08-19T06:07:54;21.50;99.90
41447;DHT22;27185;52.040;4.490;2022-08-19T06:10:39;21.60;99.90
41447;DHT22;27185;52.040;4.490;2022-08-19T06:13:25;21.60;99.90
41447;DHT22;27185;52.040;4.490;2022-08-19T06:16:11;21.70;99.90
41447;DHT22;27185;52.040;4.490;2022-08-19T06:18:58;21.80;99.90
41447;DHT22;27185;52.040;4.490;2022-08-19T06:21:47;21.80;99.90
41447;DHT22;27185;52.040;4.490;2022-08-19T06:24:33;21.90;99.90
41447;DHT22;27185;52.040;4.490;2022-08-19T06:27:19;21.90;99.90
41447;DHT22;27185;52.040;4.490;2022-08-19T06:30:05;21.90;99.90
41447;DHT22;27185;52.040;4.490;2022-08-19T06:32:51;22.00;99.90
41447;DHT22;27185;52.040;4.490;2022-08-19T06:35:41;22.10;99.90
41447;DHT22;27185;52.040;4.490;2022-08-19T06:38:26;22.10;99.90
41447;DHT22;27185;52.040;4.490;2022-08-19T06:41:12;22.10;99.90
41447;DHT22;27185;52.040;4.490;2022-08-19T06:43:57;22.20;99.90
41447;DHT22;27185;52.040;4.490;2022-08-19T06:46:43;22.20;99.90
41447;DHT22;27185;52.040;4.490;2022-08-19T06:49:29;22.40;99.90
41447;DHT22;27185;52.040;4.490;2022-08-19T06:52:16;22.40;99.90
41447;DHT22;27185;52.040;4.490;2022-08-19T06:55:02;22.50;99.90
41447;DHT22;27185;52.040;4.490;2022-08-19T06:57:48;22.60;99.90
41447;DHT22;27185;52.040;4.490;2022-08-19T07:00:38;22.60;99.90
41447;DHT22;27185;52.040;4.490;2022-08-19T07:03:24;22.70;99.90
41447;DHT22;27185;52.040;4.490;2022-08-19T07:06:13;22.70;99.90
41447;DHT22;27185;52.040;4.490;2022-08-19T07:09:00;22.80;99.90
41447;DHT22;27185;52.040;4.490;2022-08-19T07:11:50;22.90;99.90
41447;DHT22;27185;52.040;4.490;2022-08-19T07:14:38;23.00;99.90
41447;DHT22;27185;52.040;4.490;2022-08-19T07:17:24;23.10;99.90
41447;DHT22;27185;52.040;4.490;2022-08-19T07:20:10;23.20;99.90
41447;DHT22;27185;52.040;4.490;2022-08-19T07:22:56;23.30;99.90
41447;DHT22;27185;52.040;4.490;2022-08-19T07:25:42;23.40;99.90
41447;DHT22;27185;52.040;4.490;2022-08-19T07:28:28;23.40;99.90
41447;DHT22;27185;52.040;4.490;2022-08-19T07:31:18;23.40;99.90
41447;DHT22;27185;52.040;4.490;2022-08-19T07:34:07;23.50;99.90
41447;DHT22;27185;52.040;4.490;2022-08-19T07:36:54;23.60;99.90
41447;DHT22;27185;52.040;4.490;2022-08-19T07:39:40;23.60;99.90
41447;DHT22;27185;52.040;4.490;2022-08-19T07:42:26;23.70;99.90
41447;DHT22;27185;52.040;4.490;2022-08-19T07:45:13;23.70;99.90
41447;DHT22;27185;52.040;4.490;2022-08-19T07:48:01;23.80;99.90
41447;DHT22;27185;52.040;4.490;2022-08-19T07:50:46;23.80;99.90
41447;DHT22;27185;52.040;4.490;2022-08-19T07:53:35;23.80;99.90
41447;DHT22;27185;52.040;4.490;2022-08-19T07:56:21;23.80;99.90
41447;DHT22;27185;52.040;4.490;2022-08-19T07:59:07;23.80;99.90
41447;DHT22;27185;52.040;4.490;2022-08-19T08:01:54;23.80;99.90
41447;DHT22;27185;52.040;4.490;2022-08-19T08:04:40;23.90;99.90
41447;DHT22;27185;52.040;4.490;2022-08-19T08:07:44;23.90;99.90
41447;DHT22;27185;52.040;4.490;2022-08-19T08:10:48;23.90;99.90
41447;DHT22;27185;52.040;4.490;2022-08-19T08:13:35;24.00;99.90
41447;DHT22;27185;52.040;4.490;2022-08-19T08:16:20;24.00;99.90
41447;DHT22;27185;52.040;4.490;2022-08-19T08:19:06;24.10;99.90
41447;DHT22;27185;52.040;4.490;2022-08-19T08:21:54;24.20;99.90
41447;DHT22;27185;52.040;4.490;2022-08-19T08:24:40;24.30;99.90
41447;DHT22;27185;52.040;4.490;2022-08-19T08:27:25;24.30;99.90
41447;DHT22;27185;52.040;4.490;2022-08-19T08:30:19;24.30;99.90
41447;DHT22;27185;52.040;4.490;2022-08-19T08:33:05;24.40;99.90
41447;DHT22;27185;52.040;4.490;2022-08-19T08:35:51;24.50;99.90
41447;DHT22;27185;52.040;4.490;2022-08-19T08:38:38;24.50;99.90
41447;DHT22;27185;52.040;4.490;2022-08-19T08:41:53;24.70;99.90
41447;DHT22;27185;52.040;4.490;2022-08-19T08:45:13;24.70;99.30
41447;DHT22;27185;52.040;4.490;2022-08-19T08:48:07;24.70;99.50
41447;DHT22;27185;52.040;4.490;2022-08-19T08:50:56;24.80;99.90
41447;DHT22;27185;52.040;4.490;2022-08-19T08:53:45;24.80;99.90
41447;DHT22;27185;52.040;4.490;2022-08-19T08:56:32;24.90;99.90
41447;DHT22;27185;52.040;4.490;2022-08-19T08:59:30;25.10;99.90
41447;DHT22;27185;52.040;4.490;2022-08-19T09:02:18;25.30;98.10
41447;DHT22;27185;52.040;4.490;2022-08-19T09:05:05;25.40;98.40
41447;DHT22;27185;52.040;4.490;2022-08-19T09:08:07;25.50;98.30
41447;DHT22;27185;52.040;4.490;2022-08-19T09:10:55;25.60;97.00
41447;DHT22;27185;52.040;4.490;2022-08-19T09:13:49;25.70;97.80
41447;DHT22;27185;52.040;4.490;2022-08-19T09:16:39;25.80;96.10
41447;DHT22;27185;52.040;4.490;2022-08-19T09:19:25;25.90;98.00
41447;DHT22;27185;52.040;4.490;2022-08-19T09:22:11;25.90;97.90
41447;DHT22;27185;52.040;4.490;2022-08-19T09:24:56;26.00;97.80
41447;DHT22;27185;52.040;4.490;2022-08-19T09:27:42;26.10;97.60
41447;DHT22;27185;52.040;4.490;2022-08-19T09:30:31;26.30;97.20
41447;DHT22;27185;52.040;4.490;2022-08-19T09:33:17;26.30;96.90
41447;DHT22;27185;52.040;4.490;2022-08-19T09:36:08;26.20;96.50
41447;DHT22;27185;52.040;4.490;2022-08-19T09:38:55;26.20;96.10
41447;DHT22;27185;52.040;4.490;2022-08-19T09:41:41;26.10;96.40
41447;DHT22;27185;52.040;4.490;2022-08-19T09:44:26;25.90;96.60
41447;DHT22;27185;52.040;4.490;2022-08-19T09:47:13;25.80;96.70
41447;DHT22;27185;52.040;4.490;2022-08-19T09:49:59;25.70;96.90
41447;DHT22;27185;52.040;4.490;2022-08-19T09:52:45;25.60;97.10
41447;DHT22;27185;52.040;4.490;2022-08-19T09:55:31;25.40;97.20
41447;DHT22;27185;52.040;4.490;2022-08-19T09:58:16;25.30;97.20
41447;DHT22;27185;52.040;4.490;2022-08-19T10:01:02;25.20;97.50
41447;DHT22;27185;52.040;4.490;2022-08-19T10:03:51;25.20;97.60
41447;DHT22;27185;52.040;4.490;2022-08-19T10:06:39;25.20;96.70
41447;DHT22;27185;52.040;4.490;2022-08-19T10:09:25;25.20;98.00
41447;DHT22;27185;52.040;4.490;2022-08-19T10:12:10;25.40;98.10
41447;DHT22;27185;52.040;4.490;2022-08-19T10:14:56;25.50;98.00
41447;DHT22;27185;52.040;4.490;2022-08-19T10:17:42;25.60;97.50
41447;DHT22;27185;52.040;4.490;2022-08-19T10:20:27;25.80;97.20
41447;DHT22;27185;52.040;4.490;2022-08-19T10:23:14;25.90;96.90
41447;DHT22;27185;52.040;4.490;2022-08-19T10:26:00;26.20;96.90
41447;DHT22;27185;52.040;4.490;2022-08-19T10:28:46;26.40;96.60
41447;DHT22;27185;52.040;4.490;2022-08-19T10:31:33;26.50;95.80
41447;DHT22;27185;52.040;4.490;2022-08-19T10:34:19;26.70;95.90
41447;DHT22;27185;52.040;4.490;2022-08-19T10:37:05;26.90;95.60
41447;DHT22;27185;52.040;4.490;2022-08-19T10:39:51;27.00;95.00
41447;DHT22;27185;52.040;4.490;2022-08-19T10:42:37;27.10;94.70
41447;DHT22;27185;52.040;4.490;2022-08-19T10:45:23;27.10;94.60
41447;DHT22;27185;52.040;4.490;2022-08-19T10:48:11;27.10;94.80
41447;DHT22;27185;52.040;4.490;2022-08-19T10:50:57;27.10;94.70
41447;DHT22;27185;52.040;4.490;2022-08-19T10:54:03;27.10;94.30
41447;DHT22;27185;52.040;4.490;2022-08-19T10:56:48;27.00;94.30
41447;DHT22;27185;52.040;4.490;2022-08-19T10:59:37;26.80;94.20
41447;DHT22;27185;52.040;4.490;2022-08-19T11:02:23;26.70;94.40
41447;DHT22;27185;52.040;4.490;2022-08-19T11:05:09;26.60;94.60
41447;DHT22;27185;52.040;4.490;2022-08-19T11:07:57;26.50;94.70
41447;DHT22;27185;52.040;4.490;2022-08-19T11:10:43;26.30;94.90
41447;DHT22;27185;52.040;4.490;2022-08-19T11:13:35;26.20;95.20
41447;DHT22;27185;52.040;4.490;2022-08-19T11:16:25;26.10;94.70
41447;DHT22;27185;52.040;4.490;2022-08-19T11:19:11;26.10;95.50
41447;DHT22;27185;52.040;4.490;2022-08-19T11:22:00;26.10;95.60
41447;DHT22;27185;52.040;4.490;2022-08-19T11:24:46;26.10;95.60
41447;DHT22;27185;52.040;4.490;2022-08-19T11:27:32;26.20;95.40
41447;DHT22;27185;52.040;4.490;2022-08-19T11:30:18;26.20;95.30
41447;DHT22;27185;52.040;4.490;2022-08-19T11:33:04;26.20;95.30
41447;DHT22;27185;52.040;4.490;2022-08-19T11:35:49;26.20;95.60
41447;DHT22;27185;52.040;4.490;2022-08-19T11:38:36;26.30;95.70
41447;DHT22;27185;52.040;4.490;2022-08-19T11:41:23;26.30;95.60
41447;DHT22;27185;52.040;4.490;2022-08-19T11:44:09;26.40;95.40
41447;DHT22;27185;52.040;4.490;2022-08-19T11:46:55;26.40;95.40
41447;DHT22;27185;52.040;4.490;2022-08-19T11:49:41;26.40;95.30
41447;DHT22;27185;52.040;4.490;2022-08-19T11:52:27;26.40;95.40
41447;DHT22;27185;52.040;4.490;2022-08-19T11:55:15;26.40;95.20
41447;DHT22;27185;52.040;4.490;2022-08-19T11:58:00;26.40;95.40
41447;DHT22;27185;52.040;4.490;2022-08-19T12:00:46;26.30;95.80
41447;DHT22;27185;52.040;4.490;2022-08-19T12:03:32;26.30;96.10
41447;DHT22;27185;52.040;4.490;2022-08-19T12:06:23;26.20;96.50
41447;DHT22;27185;52.040;4.490;2022-08-19T12:09:14;26.20;96.60
41447;DHT22;27185;52.040;4.490;2022-08-19T12:12:00;26.20;96.90
41447;DHT22;27185;52.040;4.490;2022-08-19T12:14:48;26.20;96.80
41447;DHT22;27185;52.040;4.490;2022-08-19T12:17:36;26.30;96.60
41447;DHT22;27185;52.040;4.490;2022-08-19T12:20:22;26.30;96.20
41447;DHT22;27185;52.040;4.490;2022-08-19T12:23:09;26.40;96.50
41447;DHT22;27185;52.040;4.490;2022-08-19T12:25:55;26.50;95.30
41447;DHT22;27185;52.040;4.490;2022-08-19T12:28:42;26.50;96.20
41447;DHT22;27185;52.040;4.490;2022-08-19T12:31:28;26.50;96.50
41447;DHT22;27185;52.040;4.490;2022-08-19T12:34:14;26.40;96.70
41447;DHT22;27185;52.040;4.490;2022-08-19T12:37:03;26.40;96.70
41447;DHT22;27185;52.040;4.490;2022-08-19T12:39:49;26.30;96.70
41447;DHT22;27185;52.040;4.490;2022-08-19T12:42:35;26.30;96.70
41447;DHT22;27185;52.040;4.490;2022-08-19T12:45:21;26.20;96.60
41447;DHT22;27185;52.040;4.490;2022-08-19T12:48:08;26.20;97.20
41447;DHT22;27185;52.040;4.490;2022-08-19T12:50:54;26.20;97.80
41447;DHT22;27185;52.040;4.490;2022-08-19T12:53:40;26.30;98.10
41447;DHT22;27185;52.040;4.490;2022-08-19T12:56:25;26.50;98.10
41447;DHT22;27185;52.040;4.490;2022-08-19T12:59:11;26.80;97.50
41447;DHT22;27185;52.040;4.490;2022-08-19T13:01:57;27.10;97.20
41447;DHT22;27185;52.040;4.490;2022-08-19T13:04:42;27.30;97.10
41447;DHT22;27185;52.040;4.490;2022-08-19T13:07:28;27.60;97.40
41447;DHT22;27185;52.040;4.490;2022-08-19T13:10:16;28.00;97.20
41447;DHT22;27185;52.040;4.490;2022-08-19T13:13:04;28.40;95.80
41447;DHT22;27185;52.040;4.490;2022-08-19T13:15:51;28.70;95.30
41447;DHT22;27185;52.040;4.490;2022-08-19T13:18:38;28.90;95.00
41447;DHT22;27185;52.040;4.490;2022-08-19T13:21:26;29.10;93.80
41447;DHT22;27185;52.040;4.490;2022-08-19T13:24:13;29.20;93.40
41447;DHT22;27185;52.040;4.490;2022-08-19T13:27:00;29.30;92.90
41447;DHT22;27185;52.040;4.490;2022-08-19T13:29:47;29.40;92.60
41447;DHT22;27185;52.040;4.490;2022-08-19T13:32:54;29.30;92.00
41447;DHT22;27185;52.040;4.490;2022-08-19T13:35:59;29.10;92.10
41447;DHT22;27185;52.040;4.490;2022-08-19T13:38:45;28.80;91.60
41447;DHT22;27185;52.040;4.490;2022-08-19T13:41:32;28.60;92.10
41447;DHT22;27185;52.040;4.490;2022-08-19T13:44:19;28.40;92.50
41447;DHT22;27185;52.040;4.490;2022-08-19T13:47:06;28.50;92.70
41447;DHT22;27185;52.040;4.490;2022-08-19T13:49:52;28.60;93.10
41447;DHT22;27185;52.040;4.490;2022-08-19T13:52:39;28.80;93.20
41447;DHT22;27185;52.040;4.490;2022-08-19T13:55:25;28.90;92.40
41447;DHT22;27185;52.040;4.490;2022-08-19T13:58:11;29.10;92.20
41447;DHT22;27185;52.040;4.490;2022-08-19T14:00:56;29.00;91.80
41447;DHT22;27185;52.040;4.490;2022-08-19T14:03:44;29.00;91.60
41447;DHT22;27185;52.040;4.490;2022-08-19T14:06:29;28.90;91.90
41447;DHT22;27185;52.040;4.490;2022-08-19T14:09:16;28.70;91.60
41447;DHT22;27185;52.040;4.490;2022-08-19T14:12:02;28.70;91.90
41447;DHT22;27185;52.040;4.490;2022-08-19T14:14:48;28.60;91.90
41447;DHT22;27185;52.040;4.490;2022-08-19T14:17:34;28.50;92.10
41447;DHT22;27185;52.040;4.490;2022-08-19T14:20:20;28.40;92.20
41447;DHT22;27185;52.040;4.490;2022-08-19T14:23:06;28.50;92.20
41447;DHT22;27185;52.040;4.490;2022-08-19T14:25:52;28.60;92.40
41447;DHT22;27185;52.040;4.490;2022-08-19T14:28:38;28.70;91.80
41447;DHT22;27185;52.040;4.490;2022-08-19T14:31:26;28.70;91.90
41447;DHT22;27185;52.040;4.490;2022-08-19T14:34:11;28.70;91.70
41447;DHT22;27185;52.040;4.490;2022-08-19T14:36:58;28.60;91.50
41447;DHT22;27185;52.040;4.490;2022-08-19T14:39:44;28.50;91.70
41447;DHT22;27185;52.040;4.490;2022-08-19T14:42:30;28.30;91.80
41447;DHT22;27185;52.040;4.490;2022-08-19T14:45:16;28.20;91.90
41447;DHT22;27185;52.040;4.490;2022-08-19T14:48:01;28.10;92.00
41447;DHT22;27185;52.040;4.490;2022-08-19T14:50:47;28.00;92.00
41447;DHT22;27185;52.040;4.490;2022-08-19T14:53:33;27.90;91.70
41447;DHT22;27185;52.040;4.490;2022-08-19T14:56:21;27.80;92.00
41447;DHT22;27185;52.040;4.490;2022-08-19T14:59:08;27.70;92.10
41447;DHT22;27185;52.040;4.490;2022-08-19T15:01:54;27.60;92.30
41447;DHT22;27185;52.040;4.490;2022-08-19T15:04:40;27.60;92.70
41447;DHT22;27185;52.040;4.490;2022-08-19T15:07:25;27.60;93.00
41447;DHT22;27185;52.040;4.490;2022-08-19T15:10:13;27.60;93.00
41447;DHT22;27185;52.040;4.490;2022-08-19T15:12:59;27.60;92.90
41447;DHT22;27185;52.040;4.490;2022-08-19T15:15:44;27.60;91.60
41447;DHT22;27185;52.040;4.490;2022-08-19T15:18:30;27.50;92.80
41447;DHT22;27185;52.040;4.490;2022-08-19T15:21:18;27.40;92.90
41447;DHT22;27185;52.040;4.490;2022-08-19T15:24:04;27.20;92.90
41447;DHT22;27185;52.040;4.490;2022-08-19T15:26:51;27.00;93.00
41447;DHT22;27185;52.040;4.490;2022-08-19T15:29:36;26.70;93.60
41447;DHT22;27185;52.040;4.490;2022-08-19T15:32:22;26.40;94.10
41447;DHT22;27185;52.040;4.490;2022-08-19T15:35:08;25.90;94.50
41447;DHT22;27185;52.040;4.490;2022-08-19T15:37:55;25.50;95.20
41447;DHT22;27185;52.040;4.490;2022-08-19T15:40:41;25.20;95.70
41447;DHT22;27185;52.040;4.490;2022-08-19T15:43:27;24.90;96.10
41447;DHT22;27185;52.040;4.490;2022-08-19T15:46:18;24.70;96.80
41447;DHT22;27185;52.040;4.490;2022-08-19T15:49:06;24.50;97.40
41447;DHT22;27185;52.040;4.490;2022-08-19T15:51:52;24.30;97.70
41447;DHT22;27185;52.040;4.490;2022-08-19T15:54:38;24.10;98.20
41447;DHT22;27185;52.040;4.490;2022-08-19T15:57:25;24.00;98.80
41447;DHT22;27185;52.040;4.490;2022-08-19T16:00:10;23.90;99.20
41447;DHT22;27185;52.040;4.490;2022-08-19T16:03:15;23.90;99.60
41447;DHT22;27185;52.040;4.490;2022-08-19T16:06:19;23.90;99.90
41447;DHT22;27185;52.040;4.490;2022-08-19T16:09:10;24.00;99.90
41447;DHT22;27185;52.040;4.490;2022-08-19T16:12:02;24.10;99.90
41447;DHT22;27185;52.040;4.490;2022-08-19T16:14:48;24.10;99.80
41447;DHT22;27185;52.040;4.490;2022-08-19T16:17:34;24.30;99.90
41447;DHT22;27185;52.040;4.490;2022-08-19T16:20:20;24.50;99.90
41447;DHT22;27185;52.040;4.490;2022-08-19T16:23:06;24.70;99.90
41447;DHT22;27185;52.040;4.490;2022-08-19T16:25:52;24.90;99.80
41447;DHT22;27185;52.040;4.490;2022-08-19T16:28:38;25.10;99.60
41447;DHT22;27185;52.040;4.490;2022-08-19T16:31:26;25.30;99.00
41447;DHT22;27185;52.040;4.490;2022-08-19T16:34:12;25.40;98.70
41447;DHT22;27185;52.040;4.490;2022-08-19T16:36:58;25.50;98.30
41447;DHT22;27185;52.040;4.490;2022-08-19T16:39:44;25.50;97.90
41447;DHT22;27185;52.040;4.490;2022-08-19T16:42:29;25.40;97.60
41447;DHT22;27185;52.040;4.490;2022-08-19T16:45:15;25.40;97.70
41447;DHT22;27185;52.040;4.490;2022-08-19T16:48:06;25.30;97.40
41447;DHT22;27185;52.040;4.490;2022-08-19T16:50:52;25.10;97.30
41447;DHT22;27185;52.040;4.490;2022-08-19T16:53:39;25.10;97.60
41447;DHT22;27185;52.040;4.490;2022-08-19T16:56:26;25.00;97.60
41447;DHT22;27185;52.040;4.490;2022-08-19T16:59:13;25.00;97.50
41447;DHT22;27185;52.040;4.490;2022-08-19T17:02:00;25.00;97.10
41447;DHT22;27185;52.040;4.490;2022-08-19T17:04:46;24.90;97.60
41447;DHT22;27185;52.040;4.490;2022-08-19T17:07:34;24.90;97.80
41447;DHT22;27185;52.040;4.490;2022-08-19T17:10:19;24.80;97.90
41447;DHT22;27185;52.040;4.490;2022-08-19T17:13:05;24.80;98.00
41447;DHT22;27185;52.040;4.490;2022-08-19T17:15:52;24.70;98.00
41447;DHT22;27185;52.040;4.490;2022-08-19T17:18:39;24.70;98.10
41447;DHT22;27185;52.040;4.490;2022-08-19T17:21:28;24.60;97.90
41447;DHT22;27185;52.040;4.490;2022-08-19T17:24:14;24.60;97.90
41447;DHT22;27185;52.040;4.490;2022-08-19T17:27:03;24.50;97.90
41447;DHT22;27185;52.040;4.490;2022-08-19T17:29:49;24.40;98.00
41447;DHT22;27185;52.040;4.490;2022-08-19T17:32:35;24.40;98.00
41447;DHT22;27185;52.040;4.490;2022-08-19T17:35:20;24.30;98.10